Time;durP1;ratioP1;P1;durP2;ratioP2;P2;SDS_P1;SDS_P2;PMS_P1;PMS_P2;Temp;Humidity;BMP_temperature;BMP_pressure;BME280_temperature;BME280_humidity;BME280_pressure;Samples;Min_cycle;Max_cycle;Signal;HPM_P1;HPM_P2
2021/10/18 00:00:00;;;;;;;18.60;15.10;;;230.50;2252.80;;;;;;4858263;29;20052;-54
2021/10/18 00:02:26;;;;;;;24.65;16.38;;;230.40;2252.80;;;;;;4858299;29;20040;-54
2021/10/18 00:04:52;;;;;;;25.38;17.83;;;230.40;2252.80;;;;;;4858306;29;20113;-54
2021/10/18 00:07:20;;;;;;;26.90;15.60;;;230.50;2252.80;;;;;;4857962;29;20532;-54
2021/10/18 00:09:46;;;;;;;19.27;13.60;;;230.50;2252.80;;;;;;4858018;29;20034;-54
2021/10/18 00:12:12;;;;;;;22.75;16.38;;;230.40;2252.80;;;;;;4858341;29;20477;-52
2021/10/18 00:14:37;;;;;;;24.67;16.98;;;205.70;2252.80;;;;;;4857877;29;20026;-54
2021/10/18 00:17:03;;;;;;;24.27;16.73;;;205.70;2252.80;;;;;;4858033;29;20065;-54
2021/10/18 00:19:29;;;;;;;31.20;19.13;;;205.70;2252.80;;;;;;4857829;29;20025;-54
2021/10/18 00:21:55;;;;;;;37.60;22.73;;;205.70;2252.80;;;;;;4858240;29;20034;-54
2021/10/18 00:24:21;;;;;;;46.53;27.95;;;205.70;2252.80;;;;;;4857853;29;20069;-55
2021/10/18 00:26:46;;;;;;;29.10;20.35;;;205.70;2252.80;;;;;;4857892;29;20150;-55
2021/10/18 00:29:12;;;;;;;28.52;20.33;;;205.70;2252.80;;;;;;4857731;29;20044;-54
2021/10/18 00:31:38;;;;;;;36.78;20.10;;;205.70;2252.80;;;;;;4857780;29;20576;-54
2021/10/18 00:34:04;;;;;;;27.23;18.70;;;205.60;2252.80;;;;;;4858108;29;20358;-54
2021/10/18 00:36:30;;;;;;;30.98;20.15;;;205.70;2252.80;;;;;;4857778;29;20029;-54
2021/10/18 00:38:56;;;;;;;53.63;30.08;;;205.70;2252.80;;;;;;4857790;29;20147;-55
2021/10/18 00:41:22;;;;;;;72.60;40.22;;;205.70;2252.80;;;;;;4857745;29;20029;-55
2021/10/18 00:43:51;;;;;;;76.93;38.80;;;205.70;2252.80;;;;;;4857579;29;20120;-54
2021/10/18 00:46:22;;;;;;;61.80;36.15;;;205.70;2252.80;;;;;;4857452;29;20045;-55
2021/10/18 00:48:49;;;;;;;53.40;32.00;;;230.40;2252.80;;;;;;4857660;29;20033;-52
2021/10/18 00:51:16;;;;;;;38.45;25.13;;;230.50;2252.80;;;;;;4857667;29;20025;-54
2021/10/18 00:53:43;;;;;;;26.35;18.52;;;230.50;2252.80;;;;;;4857763;29;20469;-53
2021/10/18 00:56:09;;;;;;;29.13;20.08;;;230.50;2252.80;;;;;;4857580;29;20033;-53
2021/10/18 00:58:35;;;;;;;35.28;23.50;;;230.50;2252.80;;;;;;4857492;29;20032;-54
2021/10/18 01:01:02;;;;;;;30.88;22.88;;;230.40;2252.80;;;;;;4857560;29;20161;-54
2021/10/18 01:03:28;;;;;;;32.58;21.85;;;230.40;2252.80;;;;;;4857491;29;20064;-54
2021/10/18 01:05:54;;;;;;;36.15;25.10;;;205.70;2252.80;;;;;;4857920;29;20354;-54
2021/10/18 01:08:20;;;;;;;35.63;23.92;;;205.70;2252.80;;;;;;4857458;29;20037;-54
2021/10/18 01:10:45;;;;;;;33.95;23.02;;;205.50;2252.80;;;;;;4857641;29;20085;-54
2021/10/18 01:13:11;;;;;;;31.40;21.20;;;205.50;2252.80;;;;;;4857714;29;20480;-57
2021/10/18 01:15:37;;;;;;;28.15;20.00;;;205.50;2252.80;;;;;;4857400;29;20032;-55
2021/10/18 01:18:04;;;;;;;31.42;23.98;;;205.40;2252.80;;;;;;4857465;29;20109;-54
2021/10/18 01:20:38;;;;;;;30.30;20.35;;;205.30;2252.80;;;;;;4857338;29;20087;-55
2021/10/18 01:23:06;;;;;;;28.45;20.90;;;205.30;2252.80;;;;;;4857418;29;20526;-56
2021/10/18 01:25:31;;;;;;;25.52;19.65;;;205.60;2252.80;;;;;;4857588;29;20093;-55
2021/10/18 01:27:57;;;;;;;30.85;19.35;;;205.40;2252.80;;;;;;4857290;29;20473;-55
2021/10/18 01:30:24;;;;;;;32.85;21.88;;;205.50;2252.80;;;;;;4857505;29;20049;-55
2021/10/18 01:32:51;;;;;;;65.15;37.30;;;205.40;2252.80;;;;;;4857073;29;20166;-56
2021/10/18 01:35:17;;;;;;;78.15;53.42;;;205.40;2252.80;;;;;;4856940;29;20033;-55
2021/10/18 01:37:43;;;;;;;49.88;32.40;;;205.40;2252.80;;;;;;4857493;29;20044;-55
2021/10/18 01:40:14;;;;;;;51.95;36.03;;;205.40;2252.80;;;;;;4857038;29;20121;-55
2021/10/18 01:42:42;;;;;;;31.73;18.63;;;205.40;2252.80;;;;;;4857024;29;20094;-55
2021/10/18 01:45:10;;;;;;;27.05;18.35;;;205.40;2252.80;;;;;;4857020;29;20495;-55
2021/10/18 01:47:36;;;;;;;25.55;17.23;;;205.30;2252.80;;;;;;4857230;29;20036;-55
2021/10/18 01:50:08;;;;;;;25.23;19.27;;;205.20;2252.80;;;;;;4858744;29;20033;-54
2021/10/18 01:52:34;;;;;;;21.65;18.48;;;205.20;2252.80;;;;;;4860537;29;20094;-55
2021/10/18 01:54:59;;;;;;;27.45;16.65;;;205.20;2252.80;;;;;;4860336;29;20470;-54
2021/10/18 01:57:25;;;;;;;22.75;16.98;;;205.20;2252.80;;;;;;4860598;29;20026;-55
2021/10/18 01:59:51;;;;;;;19.98;16.88;;;205.20;2252.80;;;;;;4860388;29;20402;-55
2021/10/18 02:02:16;;;;;;;25.17;18.58;;;205.20;2252.80;;;;;;4860173;29;20038;-55
2021/10/18 02:04:42;;;;;;;40.63;26.73;;;205.20;2252.80;;;;;;4860384;29;20045;-54
2021/10/18 02:07:08;;;;;;;37.03;25.15;;;205.20;2252.80;;;;;;4860360;29;20029;-55
2021/10/18 02:09:33;;;;;;;27.35;22.58;;;205.30;2252.80;;;;;;4860183;29;20037;-54
2021/10/18 02:11:59;;;;;;;23.65;17.70;;;205.30;2252.80;;;;;;4859919;29;20041;-55
2021/10/18 02:14:25;;;;;;;25.70;16.45;;;205.20;2252.80;;;;;;4860266;29;20037;-54
2021/10/18 02:16:50;;;;;;;21.08;15.57;;;205.20;2252.80;;;;;;4860106;29;20034;-55
2021/10/18 02:19:16;;;;;;;24.50;17.10;;;205.20;2252.80;;;;;;4860031;29;20100;-55
2021/10/18 02:21:42;;;;;;;24.25;17.52;;;205.10;2252.80;;;;;;4860186;29;20037;-54
2021/10/18 02:24:08;;;;;;;24.88;15.70;;;205.10;2252.80;;;;;;4859780;29;20401;-55
2021/10/18 02:26:33;;;;;;;26.30;18.15;;;205.10;2252.80;;;;;;4860036;29;20528;-55
2021/10/18 02:28:59;;;;;;;31.48;23.63;;;205.10;2252.80;;;;;;4859536;29;20044;-56
2021/10/18 02:31:25;;;;;;;36.58;26.55;;;205.10;2252.80;;;;;;4860172;29;20064;-54
2021/10/18 02:33:50;;;;;;;38.60;25.45;;;205.20;2252.80;;;;;;4859573;29;20034;-55
2021/10/18 02:36:16;;;;;;;30.60;23.40;;;205.20;2252.80;;;;;;4859652;29;20036;-56
2021/10/18 02:38:42;;;;;;;30.80;21.25;;;205.20;2252.80;;;;;;4859836;29;20034;-55
2021/10/18 02:41:08;;;;;;;27.33;18.30;;;205.30;2252.80;;;;;;4859518;29;20026;-54
2021/10/18 02:43:34;;;;;;;49.55;34.13;;;205.30;2252.80;;;;;;4859553;29;20041;-54
2021/10/18 02:45:59;;;;;;;56.03;34.65;;;205.20;2252.80;;;;;;4859427;29;20117;-54
2021/10/18 02:48:25;;;;;;;44.08;28.95;;;205.20;2252.80;;;;;;4859615;29;20040;-54
2021/10/18 02:50:52;;;;;;;28.58;21.70;;;205.30;2252.80;;;;;;4859575;29;20086;-55
2021/10/18 02:53:19;;;;;;;28.23;19.13;;;205.20;2252.80;;;;;;4859317;29;20025;-55
2021/10/18 02:55:45;;;;;;;26.98;18.77;;;205.20;2252.80;;;;;;4859566;29;20036;-54
2021/10/18 02:58:11;;;;;;;23.42;17.63;;;205.20;2252.80;;;;;;4859339;29;20037;-55
2021/10/18 03:00:37;;;;;;;26.55;18.30;;;205.10;2252.80;;;;;;4858267;29;20042;-55
2021/10/18 03:03:04;;;;;;;26.90;18.67;;;205.10;2252.80;;;;;;4858854;29;20496;-55
2021/10/18 03:05:31;;;;;;;27.83;19.77;;;205.00;2252.80;;;;;;4858903;29;20057;-54
2021/10/18 03:07:56;;;;;;;28.77;20.58;;;205.00;2252.80;;;;;;4859106;29;20045;-54
2021/10/18 03:10:22;;;;;;;48.08;43.28;;;204.90;2252.80;;;;;;4859360;29;20037;-55
2021/10/18 03:12:49;;;;;;;28.80;23.17;;;204.90;2252.80;;;;;;4858985;29;20064;-55
2021/10/18 03:15:14;;;;;;;27.13;20.42;;;204.80;2252.80;;;;;;4859209;29;20392;-54
2021/10/18 03:17:41;;;;;;;42.92;28.88;;;204.80;2252.80;;;;;;4859038;29;20029;-56
2021/10/18 03:20:08;;;;;;;33.75;24.73;;;204.80;2252.80;;;;;;4858937;29;20436;-56
2021/10/18 03:22:34;;;;;;;29.23;20.38;;;204.80;2252.80;;;;;;4859070;29;20068;-56
2021/10/18 03:25:00;;;;;;;34.03;24.30;;;204.90;2252.80;;;;;;4858751;29;20044;-53
2021/10/18 03:27:26;;;;;;;45.35;31.85;;;204.90;2252.80;;;;;;4858916;29;20034;-55
2021/10/18 03:29:52;;;;;;;66.93;46.20;;;204.90;2252.80;;;;;;4858666;29;20037;-55
2021/10/18 03:32:18;;;;;;;60.95;46.05;;;205.00;2252.80;;;;;;4858614;29;20154;-55
2021/10/18 03:34:43;;;;;;;64.75;45.80;;;205.00;2252.80;;;;;;4858691;29;20369;-54
2021/10/18 03:37:10;;;;;;;50.38;39.65;;;205.10;2252.80;;;;;;4858647;29;20030;-54
2021/10/18 03:39:35;;;;;;;33.30;22.48;;;205.00;2252.80;;;;;;4858768;29;20021;-54
2021/10/18 03:42:02;;;;;;;27.90;19.20;;;204.90;2252.80;;;;;;4858738;29;20376;-55
2021/10/18 03:44:28;;;;;;;26.30;18.77;;;204.90;2252.80;;;;;;4858228;29;20463;-54
2021/10/18 03:46:53;;;;;;;78.95;53.55;;;204.90;2252.80;;;;;;4858708;29;20113;-54
2021/10/18 03:49:19;;;;;;;35.05;24.25;;;204.90;2252.80;;;;;;4858136;29;20037;-54
2021/10/18 03:51:45;;;;;;;26.90;20.13;;;204.80;2252.80;;;;;;4858342;29;20040;-55
2021/10/18 03:54:11;;;;;;;24.52;17.70;;;180.10;2252.80;;;;;;4858434;29;20040;-55
2021/10/18 03:56:37;;;;;;;25.85;19.65;;;180.00;2252.80;;;;;;4858222;29;20033;-56
2021/10/18 03:59:02;;;;;;;26.98;20.00;;;180.00;2252.80;;;;;;4858444;29;20057;-55
2021/10/18 04:01:28;;;;;;;23.65;17.80;;;179.90;2252.80;;;;;;4858347;29;20061;-55
2021/10/18 04:03:54;;;;;;;29.23;21.73;;;179.90;2252.80;;;;;;4858335;29;20037;-55
2021/10/18 04:06:19;;;;;;;32.33;19.73;;;179.90;2252.80;;;;;;4858090;29;20055;-55
2021/10/18 04:08:48;;;;;;;40.53;36.20;;;179.90;2252.80;;;;;;4858414;29;20085;-56
2021/10/18 04:11:14;;;;;;;28.75;22.90;;;179.90;2252.80;;;;;;4858400;29;20030;-54
2021/10/18 04:13:40;;;;;;;24.58;17.23;;;179.80;2252.80;;;;;;4857632;29;20034;-54
2021/10/18 04:16:06;;;;;;;23.10;17.13;;;179.90;2252.80;;;;;;4857915;29;20078;-56
2021/10/18 04:18:32;;;;;;;23.55;17.10;;;179.80;2252.80;;;;;;4858247;29;20373;-55
2021/10/18 04:20:59;;;;;;;23.67;16.73;;;179.80;2252.80;;;;;;4857710;29;20073;-55
2021/10/18 04:23:26;;;;;;;26.00;18.20;;;179.70;2252.80;;;;;;4858027;29;20038;-53
2021/10/18 04:25:52;;;;;;;28.60;17.38;;;179.70;2252.80;;;;;;4858143;29;20562;-55
2021/10/18 04:28:18;;;;;;;25.73;19.92;;;179.70;2252.80;;;;;;4857991;29;20107;-55
2021/10/18 04:30:44;;;;;;;28.90;20.55;;;179.60;2252.80;;;;;;4857792;29;20113;-55
2021/10/18 04:33:09;;;;;;;26.50;19.25;;;179.70;2252.80;;;;;;4857673;29;20057;-55
2021/10/18 04:35:35;;;;;;;28.20;19.80;;;179.70;2252.80;;;;;;4858043;29;20396;-54
2021/10/18 04:38:01;;;;;;;29.63;20.13;;;179.70;2252.80;;;;;;4857587;29;20025;-56
2021/10/18 04:40:27;;;;;;;26.83;18.08;;;179.70;2252.80;;;;;;4857890;29;20149;-56
2021/10/18 04:42:53;;;;;;;26.85;16.98;;;179.70;2252.80;;;;;;4857844;29;20549;-55
2021/10/18 04:45:18;;;;;;;24.17;18.95;;;179.70;2252.80;;;;;;4857589;29;20037;-55
2021/10/18 04:47:50;;;;;;;26.27;18.58;;;179.70;2252.80;;;;;;4858119;29;20041;-54
2021/10/18 04:50:17;;;;;;;28.98;22.05;;;179.80;2252.80;;;;;;4857761;29;20061;-55
2021/10/18 04:52:42;;;;;;;27.33;17.73;;;179.90;2252.80;;;;;;4841364;29;20376;-55
2021/10/18 04:55:08;;;;;;;27.60;17.60;;;179.80;2252.80;;;;;;4857280;29;20116;-55
2021/10/18 04:57:34;;;;;;;22.25;17.77;;;179.90;2252.80;;;;;;4857693;29;20033;-55
2021/10/18 05:00:00;;;;;;;36.20;26.67;;;179.90;2252.80;;;;;;4857268;29;20045;-55
2021/10/18 05:02:26;;;;;;;34.03;23.65;;;180.00;2252.80;;;;;;4857718;29;20054;-55
2021/10/18 05:04:51;;;;;;;34.50;23.50;;;180.00;2252.80;;;;;;4857374;29;20490;-55
2021/10/18 05:07:17;;;;;;;33.47;20.95;;;180.00;2252.80;;;;;;4857565;29;20034;-55
2021/10/18 05:09:43;;;;;;;29.70;20.67;;;180.00;2252.80;;;;;;4857669;29;20384;-55
2021/10/18 05:12:08;;;;;;;32.33;22.80;;;180.10;2252.80;;;;;;4857410;29;20117;-55
2021/10/18 05:14:34;;;;;;;28.60;20.55;;;204.80;2252.80;;;;;;4857563;29;20037;-55
2021/10/18 05:17:00;;;;;;;28.10;19.33;;;204.80;2252.80;;;;;;4857229;29;20493;-54
2021/10/18 05:19:25;;;;;;;26.70;19.02;;;204.80;2252.80;;;;;;4857629;29;20033;-55
2021/10/18 05:21:51;;;;;;;27.83;19.42;;;204.80;2252.80;;;;;;4857303;29;20033;-55
2021/10/18 05:24:17;;;;;;;26.38;18.73;;;204.90;2252.80;;;;;;4857984;29;20082;-55
2021/10/18 05:26:42;;;;;;;24.33;18.70;;;204.90;2252.80;;;;;;4844207;29;20481;-55
2021/10/18 05:29:08;;;;;;;27.85;18.73;;;205.00;2252.80;;;;;;4860580;29;20041;-55
2021/10/18 05:31:34;;;;;;;30.20;20.50;;;205.00;2252.80;;;;;;4861029;29;20065;-55
2021/10/18 05:34:00;;;;;;;27.20;19.27;;;205.00;2252.80;;;;;;4860623;29;20117;-55
2021/10/18 05:36:26;;;;;;;33.10;20.25;;;205.00;2252.80;;;;;;4861183;29;20146;-55
2021/10/18 05:38:52;;;;;;;29.63;20.60;;;205.10;2252.80;;;;;;4861027;29;20380;-54
2021/10/18 05:41:18;;;;;;;31.25;21.55;;;205.10;2252.80;;;;;;4844047;29;20029;-55
2021/10/18 05:43:43;;;;;;;32.15;22.00;;;205.20;2252.80;;;;;;4860668;29;20044;-55
2021/10/18 05:46:09;;;;;;;27.95;20.40;;;205.20;2252.80;;;;;;4860528;29;20104;-55
2021/10/18 05:48:36;;;;;;;39.17;29.30;;;205.30;2252.80;;;;;;4860533;29;20388;-55
2021/10/18 05:51:02;;;;;;;75.13;42.60;;;205.40;2252.80;;;;;;4860570;29;20496;-55
2021/10/18 05:53:28;;;;;;;108.63;75.28;;;205.40;2252.80;;;;;;4860387;29;20026;-55
2021/10/18 05:55:54;;;;;;;51.67;37.22;;;205.50;2252.80;;;;;;4860577;29;20544;-55
2021/10/18 05:58:20;;;;;;;37.53;26.15;;;205.70;2252.80;;;;;;4860317;29;20097;-55
2021/10/18 06:00:46;;;;;;;33.63;25.92;;;230.40;2252.80;;;;;;4860350;29;20040;-53
2021/10/18 06:03:13;;;;;;;37.80;23.15;;;230.50;2252.80;;;;;;4860175;29;20041;-55
2021/10/18 06:05:45;;;;;;;28.13;19.60;;;230.60;2252.80;;;;;;4860078;29;20442;-55
2021/10/18 06:08:13;;;;;;;27.88;20.58;;;230.80;2252.80;;;;;;4860005;29;20462;-54
2021/10/18 06:10:39;;;;;;;26.73;19.55;;;230.90;2252.80;;;;;;4860009;29;20040;-55
2021/10/18 06:13:05;;;;;;;27.58;19.13;;;230.90;2252.80;;;;;;4860197;29;20093;-55
2021/10/18 06:15:32;;;;;;;28.38;19.85;;;230.90;2252.80;;;;;;4859910;29;20030;-55
2021/10/18 06:18:08;;;;;;;30.65;20.15;;;231.00;2252.80;;;;;;4859849;29;20041;-55
2021/10/18 06:20:34;;;;;;;26.75;19.85;;;231.10;2252.80;;;;;;4860240;29;20033;-55
2021/10/18 06:22:59;;;;;;;47.55;21.45;;;256.00;2252.80;;;;;;4859664;29;20108;-55
2021/10/18 06:25:25;;;;;;;48.05;33.28;;;256.20;2252.80;;;;;;4859956;29;20037;-55
2021/10/18 06:27:51;;;;;;;26.27;20.30;;;256.10;2252.80;;;;;;4859749;29;20094;-55
2021/10/18 06:30:16;;;;;;;28.10;18.48;;;256.10;2252.80;;;;;;4859554;29;20041;-55
2021/10/18 06:32:42;;;;;;;25.80;18.40;;;256.10;2252.80;;;;;;4859801;29;20054;-55
2021/10/18 06:35:08;;;;;;;25.50;18.85;;;256.40;2252.80;;;;;;4859413;29;20034;-55
2021/10/18 06:37:34;;;;;;;35.25;24.42;;;256.40;2252.80;;;;;;4860018;29;20029;-55
2021/10/18 06:40:00;;;;;;;33.25;23.30;;;256.60;2252.80;;;;;;4859576;29;20362;-55
2021/10/18 06:42:26;;;;;;;32.28;23.05;;;256.70;2252.80;;;;;;4859886;29;20057;-55
2021/10/18 06:44:51;;;;;;;32.78;23.83;;;256.80;2252.80;;;;;;4859459;29;20072;-55
2021/10/18 06:47:18;;;;;;;31.90;24.15;;;281.60;2278.40;;;;;;4859372;29;20055;-56
2021/10/18 06:49:44;;;;;;;31.98;23.13;;;281.80;2278.40;;;;;;4859837;29;20033;-54
2021/10/18 06:52:09;;;;;;;23.52;17.52;;;281.90;2278.40;;;;;;4859401;29;20360;-54
2021/10/18 06:54:41;;;;;;;25.73;21.20;;;282.10;2278.40;;;;;;4859641;29;20032;-55
2021/10/18 06:57:07;;;;;;;32.00;20.67;;;282.00;2278.40;;;;;;4859530;29;20476;-56
2021/10/18 06:59:33;;;;;;;37.10;22.83;;;282.20;2278.40;;;;;;4859464;29;20128;-55
2021/10/18 07:01:59;;;;;;;34.92;24.92;;;282.10;2278.40;;;;;;4859146;29;20455;-55
2021/10/18 07:04:29;;;;;;;35.05;26.27;;;282.00;2278.40;;;;;;4859308;29;20104;-55
2021/10/18 07:06:55;;;;;;;31.70;24.63;;;282.30;2278.40;;;;;;4859307;29;20033;-55
2021/10/18 07:09:24;;;;;;;36.90;28.73;;;307.70;2304.00;;;;;;4858990;29;20544;-56
2021/10/18 07:11:50;;;;;;;39.90;32.72;;;358.60;2329.60;;;;;;4858887;29;20037;-58
2021/10/18 07:14:16;;;;;;;52.80;39.95;;;384.90;2329.60;;;;;;4859259;29;20112;-56
2021/10/18 07:16:41;;;;;;;50.35;37.85;;;435.50;2355.20;;;;;;4858970;29;20545;-57
2021/10/18 07:19:07;;;;;;;67.38;52.17;;;461.40;2380.80;;;;;;4858772;29;20037;-56
2021/10/18 07:21:33;;;;;;;85.63;72.38;;;486.70;2380.80;;;;;;4859264;29;20060;-58
2021/10/18 07:24:03;;;;;;;82.32;68.97;;;486.50;2380.80;;;;;;4858879;29;20037;-56
2021/10/18 07:26:29;;;;;;;78.07;67.22;;;486.70;2380.80;;;;;;4858827;29;20049;-56
2021/10/18 07:28:55;;;;;;;65.50;57.05;;;486.70;2380.80;;;;;;4858860;29;20085;-56
2021/10/18 07:31:21;;;;;;;48.53;43.38;;;512.50;2380.80;;;;;;4858622;29;20144;-56
2021/10/18 07:33:47;;;;;;;90.07;80.32;;;563.20;2355.20;;;;;;4858957;29;20037;-59
2021/10/18 07:36:22;;;;;;;69.15;56.58;;;538.20;2355.20;;;;;;4858873;29;20033;-57
2021/10/18 07:38:49;;;;;;;88.90;79.50;;;564.00;2201.60;;;;;;4858608;29;20442;-57
2021/10/18 07:41:15;;;;;;;59.80;53.05;;;563.50;2227.20;;;;;;4858691;29;20039;-59
2021/10/18 07:43:41;;;;;;;44.67;38.63;;;563.60;2201.60;;;;;;4858515;29;20464;-59
2021/10/18 07:46:07;;;;;;;38.28;34.20;;;589.50;2022.40;;;;;;4858370;29;20060;-57
2021/10/18 07:48:33;;;;;;;35.25;31.50;;;614.50;1945.60;;;;;;4857985;29;20383;-58
2021/10/18 07:50:58;;;;;;;37.70;34.25;;;615.20;1868.80;;;;;;4858464;29;20062;-58
2021/10/18 07:53:24;;;;;;;39.90;35.90;;;615.20;1868.80;;;;;;4858746;29;20025;-59
2021/10/18 07:55:50;;;;;;;36.03;32.35;;;615.00;1843.20;;;;;;4858315;29;20560;-57
2021/10/18 07:58:16;;;;;;;31.08;27.73;;;614.70;1894.40;;;;;;4858493;29;20029;-58
2021/10/18 08:00:41;;;;;;;28.65;25.55;;;640.00;1817.60;;;;;;4858014;29;20532;-57
2021/10/18 08:03:07;;;;;;;20.70;18.75;;;640.10;1817.60;;;;;;4858097;29;20446;-57
2021/10/18 08:05:33;;;;;;;19.92;18.05;;;614.70;1817.60;;;;;;4858238;29;20040;-57
2021/10/18 08:07:59;;;;;;;23.55;21.25;;;640.00;1766.40;;;;;;4858326;29;20154;-57
2021/10/18 08:10:25;;;;;;;32.83;29.58;;;665.60;1715.20;;;;;;4841765;29;20036;-58
2021/10/18 08:12:56;;;;;;;26.38;24.02;;;640.60;1715.20;;;;;;4858075;29;20035;-57
2021/10/18 08:15:23;;;;;;;58.72;52.58;;;640.50;1689.60;;;;;;4842202;29;20029;-57
2021/10/18 08:17:50;;;;;;;24.75;22.25;;;691.30;1638.40;;;;;;4857817;29;20388;-58
2021/10/18 08:20:16;;;;;;;26.05;23.40;;;716.90;1561.60;;;;;;4858281;29;20057;-57
2021/10/18 08:22:42;;;;;;;29.10;26.38;;;717.20;1510.40;;;;;;4858110;29;20025;-57
2021/10/18 08:25:08;;;;;;;39.05;35.17;;;717.40;1484.80;;;;;;4857785;29;20041;-58
2021/10/18 08:27:34;;;;;;;96.55;83.60;;;716.90;1510.40;;;;;;4858112;29;20461;-59
2021/10/18 08:30:00;;;;;;;238.40;212.73;;;717.50;1484.80;;;;;;4857625;29;20047;-61
2021/10/18 08:32:26;;;;;;;37.58;33.75;;;692.10;1484.80;;;;;;4841420;29;20064;-57
2021/10/18 08:34:52;;;;;;;35.22;31.02;;;665.70;1561.60;;;;;;4858096;29;20164;-58
2021/10/18 08:37:18;;;;;;;28.48;25.42;;;665.60;1561.60;;;;;;4858069;29;20036;-58
2021/10/18 08:42:20;;;;;;;40.53;36.40;;;640.50;1587.20;;;;;;4857932;29;20022;-58
2021/10/18 08:44:47;;;;;;;46.42;41.65;;;640.60;1587.20;;;;;;4857826;29;20420;-59
2021/10/18 08:47:14;;;;;;;41.35;37.55;;;666.30;1536.00;;;;;;4857666;29;20032;-57
2021/10/18 08:49:40;;;;;;;39.10;35.40;;;665.90;1561.60;;;;;;4857720;29;20108;-57
2021/10/18 08:52:06;;;;;;;43.05;38.90;;;666.50;1536.00;;;;;;4857835;29;20109;-58
2021/10/18 08:54:32;;;;;;;42.25;38.10;;;666.30;1587.20;;;;;;4857528;29;20026;-58
2021/10/18 08:56:58;;;;;;;56.42;51.15;;;665.90;1536.00;;;;;;4840750;29;20132;-58
2021/10/18 08:59:25;;;;;;;43.53;38.60;;;666.30;1536.00;;;;;;4858518;29;20112;-58
2021/10/18 09:01:54;;;;;;;42.17;37.95;;;666.10;1536.00;;;;;;4861404;29;20026;-56
2021/10/18 09:04:25;;;;;;;42.47;37.95;;;640.70;1561.60;;;;;;4861238;29;20496;-58
2021/10/18 09:06:52;;;;;;;40.15;35.80;;;665.60;1587.20;;;;;;4861187;29;20021;-57
2021/10/18 09:09:28;;;;;;;43.67;36.83;;;614.50;1638.40;;;;;;4861275;29;20439;-57
2021/10/18 09:11:59;;;;;;;42.10;35.38;;;589.00;1740.80;;;;;;4861420;29;20030;-57
2021/10/18 09:14:25;;;;;;;46.75;40.97;;;563.20;1817.60;;;;;;4845617;29;20161;-56
2021/10/18 09:16:51;;;;;;;45.28;36.10;;;563.30;1843.20;;;;;;4861020;29;20040;-56
2021/10/18 09:19:26;;;;;;;40.78;32.85;;;537.90;1843.20;;;;;;4861093;29;20077;-56
2021/10/18 09:22:00;;;;;;;35.45;30.70;;;512.90;1868.80;;;;;;4861141;29;20026;-56
2021/10/18 09:24:28;;;;;;;;;;;512.40;1894.40;;;;;;4861710;29;20033;-56
2021/10/18 09:26:56;;;;;;;51.00;41.25;;;512.00;1971.20;;;;;;4861124;29;19908;-57
2021/10/18 09:29:33;;;;;;;49.28;39.90;;;512.50;1945.60;;;;;;4844175;29;20040;-58
2021/10/18 09:32:02;;;;;;;36.08;30.73;;;512.50;1920.00;;;;;;4860742;29;20125;-56
2021/10/18 09:34:33;;;;;;;41.15;33.83;;;512.00;1945.60;;;;;;4860983;29;20025;-57
2021/10/18 09:37:08;;;;;;;47.15;34.45;;;512.30;1945.60;;;;;;4860459;29;20033;-56
2021/10/18 09:39:34;;;;;;;43.03;33.67;;;512.70;1920.00;;;;;;4860704;29;20097;-55
2021/10/18 09:42:05;;;;;;;45.65;31.85;;;537.70;1945.60;;;;;;4860788;29;20440;-57
2021/10/18 09:45:32;;;;;;;50.60;33.45;;;512.60;1945.60;;;;;;4860640;29;20438;-56
2021/10/18 10:53:28;;;;;;;27.92;21.80;;;512.20;2124.80;;;;;;4859932;29;20476;-55
2021/10/18 10:55:56;;;;;;;55.65;36.15;;;512.30;2099.20;;;;;;4859492;29;20469;-55
2021/10/18 10:58:49;;;;;;;37.38;30.00;;;512.30;2073.60;;;;;;4859531;29;20026;-55
2021/10/18 11:01:40;;;;;;;31.10;22.70;;;512.30;2099.20;;;;;;4859271;29;20025;-55
2021/10/18 11:04:31;;;;;;;25.35;22.63;;;512.00;2099.20;;;;;;4859163;29;20085;-56
2021/10/18 11:07:04;;;;;;;92.75;70.10;;;487.20;2124.80;;;;;;4859436;29;20030;-56
2021/10/18 11:09:42;;;;;;;43.03;33.30;;;487.20;2176.00;;;;;;4859177;29;20401;-56
2021/10/18 11:12:18;;;;;;;28.85;23.02;;;486.50;2201.60;;;;;;4859064;29;20041;-56
2021/10/18 11:14:51;;;;;;;249.45;213.85;;;486.50;2176.00;;;;;;4859049;29;20098;-55
2021/10/18 11:17:16;;;;;;;169.93;114.38;;;486.60;2227.20;;;;;;4858895;29;20035;-56
2021/10/18 11:19:51;;;;;;;202.20;145.07;;;486.40;2201.60;;;;;;4859108;29;20029;-55
2021/10/18 11:22:28;;;;;;;35.90;27.83;;;486.60;2227.20;;;;;;4858095;29;20109;-56
2021/10/18 11:24:53;;;;;;;49.97;41.17;;;486.50;2176.00;;;;;;4859221;29;20037;-55
2021/10/18 11:27:40;;;;;;;31.55;24.55;;;461.70;2227.20;;;;;;4858883;29;20465;-54
2021/10/18 11:30:08;;;;;;;41.53;34.38;;;461.40;2252.80;;;;;;4858848;29;20051;-56
2021/10/18 11:32:35;;;;;;;58.10;52.00;;;461.60;2252.80;;;;;;4858669;29;20076;-56
2021/10/18 11:35:10;;;;;;;26.42;21.55;;;461.40;2278.40;;;;;;4858427;29;20037;-56
2021/10/18 11:37:56;;;;;;;79.80;70.93;;;461.20;2278.40;;;;;;4859046;29;20468;-56
2021/10/18 11:40:31;;;;;;;31.63;25.17;;;461.40;2304.00;;;;;;4858625;29;20036;-54
2021/10/18 11:43:05;;;;;;;109.13;97.45;;;461.70;2252.80;;;;;;4858570;29;20029;-56
2021/10/18 11:45:43;;;;;;;50.03;38.30;;;461.60;2278.40;;;;;;4858440;29;20037;-55
2021/10/18 11:48:11;;;;;;;44.80;35.83;;;461.50;2252.80;;;;;;4858292;29;20025;-56
2021/10/18 11:50:38;;;;;;;39.72;28.58;;;486.40;2329.60;;;;;;4855656;29;20504;-56
2021/10/18 11:53:13;;;;;;;31.85;24.48;;;486.60;2252.80;;;;;;4857112;29;20042;-55
2021/10/18 11:55:55;;;;;;;146.43;125.10;;;461.60;2278.40;;;;;;4856931;29;20033;-56
2021/10/18 11:58:25;;;;;;;27.98;21.88;;;461.60;2252.80;;;;;;4856689;29;20033;-55
2021/10/18 12:01:04;;;;;;;33.85;26.05;;;461.40;2278.40;;;;;;4856595;29;20037;-57
2021/10/18 12:03:32;;;;;;;40.38;31.00;;;461.60;2278.40;;;;;;4856394;29;20038;-56
2021/10/18 12:06:04;;;;;;;73.00;61.10;;;461.70;2227.20;;;;;;4856245;29;20108;-55
2021/10/18 12:08:31;;;;;;;33.80;28.67;;;486.60;2252.80;;;;;;4856605;29;20033;-56
2021/10/18 12:10:59;;;;;;;86.32;75.63;;;486.90;2227.20;;;;;;4856469;29;20086;-55
2021/10/18 12:13:32;;;;;;;52.42;43.78;;;486.80;2227.20;;;;;;4856809;29;20065;-56
2021/10/18 12:16:04;;;;;;;24.40;19.77;;;487.10;2227.20;;;;;;4856621;29;20029;-56
2021/10/18 12:18:45;;;;;;;51.78;45.00;;;486.80;2201.60;;;;;;4856258;29;20396;-55
2021/10/18 12:21:31;;;;;;;29.20;23.98;;;486.70;2227.20;;;;;;4856275;29;20756;-56
2021/10/18 12:24:00;;;;;;;29.38;24.60;;;486.80;2227.20;;;;;;4856550;29;20039;-55
2021/10/18 12:26:55;;;;;;;77.90;59.85;;;461.60;2252.80;;;;;;4856633;29;20048;-55
2021/10/18 12:29:23;;;;;;;28.80;23.08;;;461.60;2278.40;;;;;;4781007;30;20035;-55
2021/10/18 12:31:53;;;;;;;102.65;83.75;;;461.10;2304.00;;;;;;4780613;30;20059;-55
2021/10/18 12:34:22;;;;;;;33.20;26.17;;;461.20;2329.60;;;;;;4780913;30;20060;-56
2021/10/18 12:37:00;;;;;;;47.20;36.97;;;460.80;2355.20;;;;;;4781157;30;20031;-56
2021/10/18 12:39:53;;;;;;;34.20;25.40;;;436.10;2329.60;;;;;;4781321;30;20036;-55
2021/10/18 12:42:25;;;;;;;25.10;20.35;;;460.90;2355.20;;;;;;4781044;30;20077;-55
2021/10/18 12:45:02;;;;;;;80.57;69.28;;;461.10;2304.00;;;;;;4780407;30;20047;-56
2021/10/18 12:47:29;;;;;;;36.17;29.92;;;461.40;2304.00;;;;;;4781127;30;20044;-56
2021/10/18 12:50:12;;;;;;;24.55;20.33;;;461.40;2304.00;;;;;;4781216;30;20073;-56
2021/10/18 12:52:54;;;;;;;31.45;23.98;;;461.60;2278.40;;;;;;4780984;30;20562;-56
2021/10/18 12:55:21;;;;;;;43.83;33.78;;;461.40;2278.40;;;;;;4780976;30;20334;-56
2021/10/18 12:57:58;;;;;;;47.22;34.92;;;461.20;2278.40;;;;;;4780706;30;20039;-56
2021/10/18 13:00:28;;;;;;;40.50;29.85;;;461.10;2329.60;;;;;;4780841;30;20142;-58
2021/10/18 13:03:14;;;;;;;46.95;32.85;;;461.10;2304.00;;;;;;4781149;30;20038;-57
2021/10/18 13:05:51;;;;;;;34.97;26.65;;;461.30;2304.00;;;;;;4743479;29;20133;-57
2021/10/18 13:08:21;;;;;;;48.50;36.10;;;461.40;2278.40;;;;;;4799318;29;20470;-56
2021/10/18 13:10:51;;;;;;;52.40;36.42;;;461.50;2380.80;;;;;;4798502;29;20818;-56